Élőkép

Információk

Albatrosz Repülő Egyesület
8000 Székesfehérvár,
Radványi utca 6.

Adószám:
19092908-2-07

Bankszámla szám:
Budapest Bank
10102952-01361819-00000001

Telefon: +36 30 9598-897

Telephey: Börgönd repülőtér

Börgöndi repülõtér

LHBP METAR/TAF

[source: ADDS]
METAR
TAF LHBP 311700Z 3118/0118 VRB03KT 5000 BR NSC BECMG 3119/3122 3000 BR BCFG SCT001 BECMG 3122/0101 1500 BR BCFG TEMPO 0101/0108 0200 FG FZFG VV001 BECMG 0108/0111 23005KT 8000 NSW SCT023 SCT220 BECMG 0112/0115 NSC BECMG 0114/0117 VRB03KT 5000 BR TAF
TAF LHBP 311700Z 3118/0118 VRB03KT 5000 BR NSC BECMG 3119/3122 3000 BR BCFG SCT001 BECMG 3122/0101 1500 BR BCFG TEMPO 0101/0108 0200 FG FZFG VV001 BECMG 0108/0111 23005KT 8000 NSW SCT023 SCT220 BECMG 0112/0115 NSC BECMG 0114/0117 VRB03KT 5000 BR =
SR / SS: 05:29 / 15:33 UTC (Börgönd 2014-10-31)
Hungarian Chinese (Simplified) Croatian Czech English Finnish French German Hebrew Italian Japanese Polish Portuguese Romanian Russian Serbian Slovak Slovenian Spanish

Belépés tagoknak